createdAt,value
2022-08-16T00:03:46.268Z,98287.59
2022-08-16T00:08:49.803Z,98292.59
2022-08-16T00:13:55.506Z,98289.94
2022-08-16T00:19:00.658Z,98286.00
2022-08-16T00:24:04.586Z,98281.16
2022-08-16T00:29:08.009Z,98286.34
2022-08-16T00:34:17.983Z,98293.66
2022-08-16T00:39:21.911Z,98282.41
2022-08-16T00:44:31.807Z,98278.00
2022-08-16T00:49:39.489Z,98288.56
2022-08-16T00:54:48.031Z,98274.19
2022-08-16T00:59:58.996Z,98293.66
2022-08-16T01:05:09.643Z,98288.25
2022-08-16T01:10:16.027Z,98299.69
2022-08-16T01:15:20.325Z,98299.31
2022-08-16T01:20:32.954Z,98299.56
2022-08-16T01:25:41.958Z,98303.41
2022-08-16T01:30:50.630Z,98310.94
2022-08-16T01:35:58.269Z,98321.66
2022-08-16T01:41:06.284Z,98308.41
2022-08-16T01:46:37.767Z,98308.63
2022-08-16T01:51:49.250Z,98313.22
2022-08-16T01:56:59.644Z,98313.50
2022-08-16T02:02:04.220Z,98318.38
2022-08-16T02:07:27.503Z,98305.69
2022-08-16T02:12:49.590Z,98309.88
2022-08-16T02:17:55.563Z,98313.31
2022-08-16T02:23:01.821Z,98306.84
2022-08-16T02:28:10.396Z,98306.13
2022-08-16T02:33:15.627Z,98305.53
2022-08-16T02:38:19.544Z,98303.81
2022-08-16T02:43:26.741Z,98306.91
2022-08-16T02:48:32.094Z,98300.19
2022-08-16T02:53:39.363Z,98295.69
2022-08-16T02:58:45.281Z,98304.66
2022-08-16T03:04:39.482Z,98312.13
2022-08-16T03:09:14.971Z,98307.97
2022-08-16T03:14:25.224Z,98319.59
2022-08-16T03:19:45.787Z,98313.97
2022-08-16T03:24:51.540Z,98317.22
2022-08-16T03:29:56.041Z,98322.97
2022-08-16T03:35:00.588Z,98322.31
2022-08-16T03:40:04.804Z,98326.75
2022-08-16T03:45:10.911Z,98330.44
2022-08-16T03:50:26.234Z,98341.06
2022-08-16T03:55:45.207Z,98346.81
2022-08-16T04:00:56.846Z,98344.44
2022-08-16T04:06:03.929Z,98325.69
2022-08-16T04:11:07.597Z,98344.38
2022-08-16T04:16:26.781Z,98354.00
2022-08-16T04:21:35.235Z,98368.50
2022-08-16T04:26:46.002Z,98374.13
2022-08-16T04:31:56.488Z,98374.53
2022-08-16T04:37:04.619Z,98389.66
2022-08-16T04:42:11.741Z,98388.06
2022-08-16T04:47:21.861Z,98390.53
2022-08-16T04:52:34.608Z,98392.47
2022-08-16T04:57:41.264Z,98403.91
2022-08-16T05:02:47.381Z,98404.06
2022-08-16T05:08:00.012Z,98406.00
2022-08-16T05:13:08.474Z,98403.91
2022-08-16T05:18:23.349Z,98408.97
2022-08-16T05:23:32.427Z,98419.72
2022-08-16T05:28:38.980Z,98422.00
2022-08-16T05:33:45.657Z,98425.06
2022-08-16T05:38:58.480Z,98424.75
2022-08-16T05:44:05.414Z,98416.78
2022-08-16T05:49:36.951Z,98417.91
2022-08-16T05:54:47.613Z,98425.47
2022-08-16T06:00:08.860Z,98430.28
2022-08-16T06:05:16.931Z,98423.38
2022-08-16T06:10:32.089Z,98421.44
2022-08-16T06:15:38.015Z,98427.44
2022-08-16T06:20:55.035Z,98433.38
2022-08-16T06:25:59.173Z,98425.69
2022-08-16T06:31:11.925Z,98444.38
2022-08-16T06:36:21.737Z,98427.16
2022-08-16T06:41:57.322Z,98441.25
2022-08-16T06:47:53.633Z,98433.13
2022-08-16T06:52:59.699Z,98465.50
2022-08-16T06:58:08.480Z,98472.34
2022-08-16T07:03:27.675Z,98473.16
2022-08-16T07:08:33.900Z,98470.69
2022-08-16T07:19:03.980Z,98472.47
2022-08-16T07:24:30.356Z,98474.13
2022-08-16T07:29:40.183Z,98485.78
2022-08-16T07:34:48.143Z,98494.22
2022-08-16T07:39:55.723Z,98493.63
2022-08-16T07:44:59.160Z,98502.66
2022-08-16T07:50:07.343Z,98506.13
2022-08-16T07:55:15.217Z,98507.53
2022-08-16T08:00:19.331Z,98503.41
2022-08-16T08:05:35.955Z,98501.97
2022-08-16T08:10:42.865Z,98507.13
2022-08-16T08:15:52.901Z,98510.00
2022-08-16T08:20:59.362Z,98512.88
2022-08-16T08:26:17.731Z,98515.09
2022-08-16T08:31:21.852Z,98521.72
2022-08-16T08:36:33.097Z,98514.44
2022-08-16T08:41:46.616Z,98526.94
2022-08-16T08:47:00.250Z,98520.66
2022-08-16T08:52:08.029Z,98512.22
2022-08-16T08:57:14.531Z,98516.41
2022-08-16T09:02:36.513Z,98518.59
2022-08-16T09:08:00.413Z,98512.25
2022-08-16T09:13:16.873Z,98517.72
2022-08-16T09:18:26.757Z,98515.06
2022-08-16T09:23:36.643Z,98517.56
2022-08-16T09:29:16.018Z,98512.69
2022-08-16T09:34:07.697Z,98512.25
2022-08-16T09:39:16.175Z,98504.03
2022-08-16T09:45:09.141Z,98506.91
2022-08-16T09:49:44.653Z,98505.38
2022-08-16T09:54:54.184Z,98498.31
2022-08-16T10:00:00.845Z,98496.81
2022-08-16T10:05:03.999Z,98497.88
2022-08-16T10:10:11.557Z,98498.16
2022-08-16T10:15:21.212Z,98499.53
2022-08-16T10:20:26.911Z,98489.09
2022-08-16T10:27:17.612Z,98487.66
2022-08-16T10:30:58.984Z,98491.09
2022-08-16T10:36:04.946Z,98494.75
2022-08-16T10:41:10.332Z,98492.91
2022-08-16T10:46:33.694Z,98484.22
2022-08-16T10:52:01.277Z,98495.13
2022-08-16T10:57:04.154Z,98496.88
2022-08-16T11:02:57.880Z,98500.13
2022-08-16T11:07:52.186Z,98487.34
2022-08-16T11:12:56.454Z,98476.97
2022-08-16T11:23:24.754Z,98473.50
2022-08-16T11:33:52.600Z,98482.56
2022-08-16T11:38:58.068Z,98479.34
2022-08-16T11:44:02.123Z,98473.25
2022-08-16T11:49:13.208Z,98476.28
2022-08-16T11:54:21.268Z,98469.72
2022-08-16T11:59:28.882Z,98473.00
2022-08-16T12:04:35.057Z,98469.28
2022-08-16T12:09:43.162Z,98474.59
2022-08-16T12:14:46.562Z,98466.03
2022-08-16T12:19:50.927Z,98461.41
2022-08-16T12:24:54.156Z,98458.66
2022-08-16T12:29:58.614Z,98457.75
2022-08-16T12:35:03.243Z,98461.81
2022-08-16T12:40:19.808Z,98460.28
2022-08-16T12:45:30.360Z,98458.72
2022-08-16T12:50:35.319Z,98441.78
2022-08-16T12:55:41.875Z,98446.63
2022-08-16T13:00:45.391Z,98451.88
2022-08-16T13:05:55.409Z,98448.53
2022-08-16T13:11:00.461Z,98446.88
2022-08-16T13:16:15.516Z,98442.41
2022-08-16T13:21:25.259Z,98431.91
2022-08-16T13:26:30.115Z,98435.75
2022-08-16T13:31:34.087Z,98437.59
2022-08-16T13:36:48.463Z,98442.19
2022-08-16T13:41:54.583Z,98448.06
2022-08-16T13:46:57.792Z,98447.19
2022-08-16T13:52:03.500Z,98432.81
2022-08-16T13:57:07.388Z,98439.84
2022-08-16T14:02:15.218Z,98428.34
2022-08-16T14:07:24.661Z,98428.56
2022-08-16T14:12:30.931Z,98424.88
2022-08-16T14:18:15.549Z,98437.22
2022-08-16T14:22:58.995Z,98424.59
2022-08-16T14:28:02.370Z,98426.09
2022-08-16T14:33:05.948Z,98432.22
2022-08-16T14:38:11.139Z,98433.06
2022-08-16T14:43:21.476Z,98425.78
2022-08-16T14:48:25.867Z,98419.81
2022-08-16T14:53:31.279Z,98420.06
2022-08-16T14:58:38.186Z,98422.25
2022-08-16T15:03:44.683Z,98411.38
2022-08-16T15:08:49.394Z,98405.22
2022-08-16T15:13:54.972Z,98406.47
2022-08-16T15:18:59.448Z,98412.69
2022-08-16T15:24:05.595Z,98421.72
2022-08-16T15:29:09.418Z,98424.75
2022-08-16T15:34:22.025Z,98433.16
2022-08-16T15:39:39.366Z,98427.66
2022-08-16T15:44:52.872Z,98439.94
2022-08-16T15:49:57.956Z,98437.88
2022-08-16T15:55:12.744Z,98431.56
2022-08-16T16:00:27.012Z,98432.81
2022-08-16T16:05:30.185Z,98446.56
2022-08-16T16:10:37.345Z,98447.28
2022-08-16T16:15:44.481Z,98444.06
2022-08-16T16:20:49.806Z,98446.41
2022-08-16T16:25:57.072Z,98446.75
2022-08-16T16:31:01.598Z,98437.06
2022-08-16T16:36:05.554Z,98436.84
2022-08-16T16:41:11.676Z,98439.94
2022-08-16T16:46:40.339Z,98436.97
2022-08-16T16:51:44.854Z,98447.28
2022-08-16T16:56:54.335Z,98449.34
2022-08-16T17:02:38.849Z,98449.81
2022-08-16T17:07:24.381Z,98455.13
2022-08-16T17:12:47.025Z,98458.78
2022-08-16T17:18:00.530Z,98460.88
2022-08-16T17:23:05.481Z,98459.72
2022-08-16T17:28:58.155Z,98464.38
2022-08-16T17:33:37.262Z,98466.63
2022-08-16T17:38:57.262Z,98470.66
2022-08-16T17:44:01.982Z,98466.25
2022-08-16T17:49:05.492Z,98474.41
2022-08-16T17:54:08.602Z,98474.13
2022-08-16T17:59:24.801Z,98477.63
2022-08-16T18:04:48.251Z,98480.03
2022-08-16T18:09:52.333Z,98491.47
2022-08-16T18:14:59.971Z,98498.22
2022-08-16T18:20:03.765Z,98503.28
2022-08-16T18:25:07.942Z,98510.16
2022-08-16T18:30:17.492Z,98516.88
2022-08-16T18:35:22.558Z,98519.09
2022-08-16T18:40:25.787Z,98524.13
2022-08-16T18:45:35.493Z,98529.59
2022-08-16T18:51:03.979Z,98536.41
2022-08-16T18:56:05.268Z,98534.25
2022-08-16T19:01:09.726Z,98541.31
2022-08-16T19:06:15.180Z,98541.78
2022-08-16T19:11:23.474Z,98555.41
2022-08-16T19:16:28.012Z,98556.72
2022-08-16T19:21:31.211Z,98559.16
2022-08-16T19:26:34.260Z,98565.44
2022-08-16T19:31:38.787Z,98574.63
2022-08-16T19:36:41.961Z,98575.13
2022-08-16T19:41:50.427Z,98572.13
2022-08-16T19:46:58.934Z,98581.81
2022-08-16T19:52:10.941Z,98590.72
2022-08-16T19:57:15.246Z,98591.91
2022-08-16T20:02:35.656Z,98596.50
2022-08-16T20:07:39.038Z,98605.53
2022-08-16T20:12:44.172Z,98600.16
2022-08-16T20:18:12.487Z,98609.53
2022-08-16T20:23:26.011Z,98616.13
2022-08-16T20:28:40.699Z,98607.84
2022-08-16T20:33:54.246Z,98618.44
2022-08-16T20:39:00.078Z,98611.50
2022-08-16T20:44:03.162Z,98609.00
2022-08-16T20:49:09.024Z,98605.94
2022-08-16T20:54:12.332Z,98606.25
2022-08-16T20:59:18.187Z,98613.19
2022-08-16T21:04:25.319Z,98613.19
2022-08-16T21:09:33.489Z,98614.44
2022-08-16T21:14:36.981Z,98621.06
2022-08-16T21:19:41.808Z,98615.56
2022-08-16T21:24:46.469Z,98609.91
2022-08-16T21:29:51.770Z,98610.38
2022-08-16T21:35:00.125Z,98619.09
2022-08-16T21:40:03.659Z,98612.00
2022-08-16T21:45:08.569Z,98617.66
2022-08-16T21:50:15.276Z,98611.69
2022-08-16T21:55:18.512Z,98609.63
2022-08-16T22:00:21.615Z,98611.38
2022-08-16T22:05:26.720Z,98615.66
2022-08-16T22:11:07.764Z,98609.00
2022-08-16T22:15:55.282Z,98619.88
2022-08-16T22:20:59.627Z,98618.91
2022-08-16T22:26:02.669Z,98627.47
2022-08-16T22:31:05.865Z,98628.19
2022-08-16T22:36:10.873Z,98624.72
2022-08-16T22:41:13.937Z,98631.47
2022-08-16T22:46:20.858Z,98636.81
2022-08-16T22:51:26.958Z,98636.00
2022-08-16T22:56:29.976Z,98637.84
2022-08-16T23:01:33.126Z,98629.03
2022-08-16T23:06:37.606Z,98629.97
2022-08-16T23:11:40.601Z,98627.75
2022-08-16T23:16:47.341Z,98623.97
2022-08-16T23:21:52.906Z,98624.41
2022-08-16T23:26:55.918Z,98622.50
2022-08-16T23:32:10.783Z,98613.38
2022-08-16T23:37:15.431Z,98610.31
2022-08-16T23:42:18.464Z,98612.19
2022-08-16T23:47:41.535Z,98612.94
2022-08-16T23:53:04.199Z,98599.69
2022-08-16T23:58:07.204Z,98607.88
